Time;durP1;ratioP1;P1;durP2;ratioP2;P2;SDS_P1;SDS_P2;PMS_P1;PMS_P2;Temp;Humidity;BMP_temperature;BMP_pressure;BME280_temperature;BME280_humidity;BME280_pressure;Samples;Min_cycle;Max_cycle;Signal;HPM_P1;HPM_P2
2021/07/18 00:01:41;;;;;;;;;8.50;8.00;;;;;23.53;50.70;101817.53;5101536;27;46112;-55
2021/07/18 00:04:06;;;;;;;;;9.00;7.75;;;;;23.49;50.63;101813.28;5101468;27;45327;-54
2021/07/18 00:06:32;;;;;;;;;7.25;7.25;;;;;23.46;50.82;101811.63;5083420;27;45247;-55
2021/07/18 00:08:57;;;;;;;;;9.00;8.75;;;;;23.44;50.75;101813.53;5101642;27;45193;-55
2021/07/18 00:11:23;;;;;;;;;9.00;9.00;;;;;23.41;50.80;101808.34;5101268;27;45981;-55
2021/07/18 00:13:48;;;;;;;;;10.00;8.75;;;;;23.36;50.72;101811.25;5101095;27;45174;-54
2021/07/18 00:16:13;;;;;;;;;10.00;9.25;;;;;23.29;50.95;101807.13;5101211;27;45484;-55
2021/07/18 00:18:39;;;;;;;;;10.00;9.25;;;;;23.30;51.33;101816.06;5100730;27;45448;-54
2021/07/18 00:21:04;;;;;;;;;12.00;7.75;;;;;23.26;51.24;101809.97;5101091;27;45422;-54
2021/07/18 00:23:30;;;;;;;;;11.00;6.75;;;;;23.23;50.81;101812.81;5101130;27;45416;-55
2021/07/18 00:25:55;;;;;;;;;9.25;8.25;;;;;23.19;51.39;101812.13;5101381;27;45297;-54
2021/07/18 00:28:20;;;;;;;;;10.25;8.25;;;;;23.17;51.43;101816.69;5100953;27;45552;-55
2021/07/18 00:30:46;;;;;;;;;9.00;8.50;;;;;23.12;51.10;101818.69;5099514;27;45395;-55
2021/07/18 00:33:11;;;;;;;;;9.50;8.75;;;;;23.11;51.33;101826.81;5101330;27;45300;-55
2021/07/18 00:35:37;;;;;;;;;9.00;8.00;;;;;23.08;51.45;101817.13;5083894;27;45417;-55
2021/07/18 00:38:03;;;;;;;;;8.75;6.75;;;;;23.05;51.65;101827.97;5074773;27;45340;-54
2021/07/18 00:40:28;;;;;;;;;10.00;8.25;;;;;22.99;51.37;101817.56;5098958;27;46188;-55
2021/07/18 00:42:53;;;;;;;;;8.00;7.25;;;;;22.98;51.54;101818.50;5088364;27;45571;-54
2021/07/18 00:45:19;;;;;;;;;9.00;8.00;;;;;22.94;51.34;101812.41;5099987;27;45473;-54
2021/07/18 00:47:44;;;;;;;;;7.50;7.50;;;;;22.89;51.63;101806.44;5099668;27;45332;-53
2021/07/18 00:50:12;;;;;;;;;8.00;6.75;;;;;22.88;51.62;101812.75;5093446;27;45331;-58
2021/07/18 00:52:38;;;;;;;;;8.00;8.00;;;;;22.85;51.56;101810.22;5100920;27;45236;-53
2021/07/18 00:55:06;;;;;;;;;11.25;9.00;;;;;22.80;51.76;101810.44;5094200;27;45425;-55
2021/07/18 00:57:32;;;;;;;;;10.00;7.00;;;;;22.79;52.15;101814.06;5075546;27;45347;-55
2021/07/18 01:00:00;;;;;;;;;10.25;7.25;;;;;22.77;51.90;101807.06;5100391;27;46080;-54
2021/07/18 01:02:26;;;;;;;;;7.25;7.25;;;;;22.73;51.91;101809.88;5100621;27;45186;-55
2021/07/18 01:04:52;;;;;;;;;7.75;7.75;;;;;22.71;51.80;101814.41;5100944;27;45300;-54
2021/07/18 01:07:17;;;;;;;;;10.50;6.75;;;;;22.67;52.27;101812.00;5100604;27;45212;-54
2021/07/18 01:09:43;;;;;;;;;9.50;7.25;;;;;22.65;52.24;101817.41;5100772;27;45344;-53
2021/07/18 01:12:08;;;;;;;;;10.75;8.50;;;;;22.62;52.35;101816.69;5100243;27;45260;-54
2021/07/18 01:14:34;;;;;;;;;9.75;9.00;;;;;22.59;52.09;101828.44;5093291;27;45248;-54
2021/07/18 01:16:59;;;;;;;;;8.75;8.75;;;;;22.56;52.23;101820.53;5094485;27;45437;-54
2021/07/18 01:19:28;;;;;;;;;9.25;8.25;;;;;22.53;52.21;101829.56;5078720;28;46978;-54
2021/07/18 01:21:59;;;;;;;;;8.00;7.50;;;;;22.52;52.46;101829.66;5074209;27;45272;-54
2021/07/18 01:24:27;;;;;;;;;7.50;7.25;;;;;22.48;52.42;101825.41;5090585;27;45219;-54
2021/07/18 01:26:53;;;;;;;;;10.00;8.25;;;;;22.47;52.40;101818.28;5100119;27;45269;-54
2021/07/18 01:29:19;;;;;;;;;8.00;8.00;;;;;22.44;52.53;101821.09;5089201;27;47238;-54
2021/07/18 01:31:45;;;;;;;;;10.00;8.00;;;;;22.42;52.47;101820.31;5097384;27;45284;-54
2021/07/18 01:34:10;;;;;;;;;11.50;8.75;;;;;22.35;52.35;101817.91;5104264;27;45464;-55
2021/07/18 01:36:36;;;;;;;;;10.25;9.75;;;;;22.35;52.45;101827.72;5091982;27;45582;-54
2021/07/18 01:39:06;;;;;;;;;8.00;8.00;;;;;22.34;52.85;101831.34;5096716;27;47437;-54
2021/07/18 01:41:31;;;;;;;;;8.75;8.25;;;;;;;;5100018;27;45359;-52
2021/07/18 01:43:56;;;;;;;;;9.75;7.25;;;;;22.26;52.97;101823.66;5094771;27;45305;-54
2021/07/18 01:46:22;;;;;;;;;7.00;7.00;;;;;22.25;52.45;101821.97;5096508;27;45489;-53
2021/07/18 01:48:52;;;;;;;;;9.25;8.25;;;;;22.22;52.85;101819.41;5102235;27;46189;-54
2021/07/18 01:51:22;;;;;;;;;10.25;8.75;;;;;22.20;52.78;101815.91;5098780;27;45163;-55
2021/07/18 01:53:54;;;;;;;;;8.25;7.50;;;;;22.17;52.79;101808.91;5103945;27;45535;-54
2021/07/18 01:56:20;;;;;;;;;9.25;9.00;;;;;22.14;52.98;101801.03;5103403;27;45510;-55
2021/07/18 01:58:47;;;;;;;;;8.50;8.50;;;;;22.10;52.84;101799.44;5103401;27;45416;-55
2021/07/18 02:01:13;;;;;;;;;9.00;9.00;;;;;22.08;52.78;101807.50;5103467;27;45468;-55
2021/07/18 02:03:38;;;;;;;;;12.25;8.25;;;;;22.05;52.95;101806.81;5103778;27;45245;-55
2021/07/18 02:06:04;;;;;;;;;10.00;9.00;;;;;22.02;52.82;101805.13;5103578;27;45372;-54
2021/07/18 02:08:29;;;;;;;;;10.75;7.75;;;;;22.00;53.08;101804.34;5076037;27;47225;-54
2021/07/18 02:10:55;;;;;;;;;11.75;10.00;;;;;21.98;53.09;101800.84;5100082;27;45328;-55
2021/07/18 02:13:20;;;;;;;;;12.50;11.25;;;;;21.96;52.72;101793.84;5075114;27;45336;-55
2021/07/18 02:15:46;;;;;;;;;12.50;12.00;;;;;21.93;53.27;101805.56;5064885;28;45348;-55
2021/07/18 02:18:12;;;;;;;;;13.00;10.00;;;;;21.90;53.09;101803.88;5083049;27;46244;-55
2021/07/18 02:20:38;;;;;;;;;12.25;9.75;;;;;21.89;53.07;101803.97;5082587;27;45219;-55
2021/07/18 02:23:03;;;;;;;;;14.50;13.50;;;;;21.85;53.29;101803.22;5083038;27;45562;-55
2021/07/18 02:25:29;;;;;;;;;10.50;9.50;;;;;21.84;53.07;101805.97;5082943;27;45407;-56
2021/07/18 02:27:55;;;;;;;;;12.25;11.00;;;;;21.78;53.38;101796.41;5082771;27;45237;-56
2021/07/18 02:30:22;;;;;;;;;12.25;11.00;;;;;21.79;53.61;101811.53;5098272;27;45448;-56
2021/07/18 02:32:52;;;;;;;;;9.00;9.00;;;;;21.76;53.42;101798.31;5093039;27;45308;-56
2021/07/18 02:35:19;;;;;;;;;11.00;11.00;;;;;21.74;53.14;101801.03;5082574;27;45610;-56
2021/07/18 02:37:45;;;;;;;;;11.25;9.75;;;;;21.72;53.45;101800.25;5094267;27;46519;-57
2021/07/18 02:40:13;;;;;;;;;11.25;8.75;;;;;21.70;53.58;101807.44;5083310;27;45267;-54
2021/07/18 02:42:38;;;;;;;;;6.00;6.00;;;;;21.64;53.47;101797.03;5082845;27;45373;-54
2021/07/18 02:45:12;;;;;;;;;10.50;9.50;;;;;21.66;53.19;101797.84;5101260;27;45256;-55
2021/07/18 02:47:38;;;;;;;;;5.50;4.50;;;;;21.65;53.43;101803.25;5102079;27;46966;-54
2021/07/18 02:50:08;;;;;;;;;9.00;7.00;;;;;21.62;53.26;101792.69;5081199;28;45364;-53
2021/07/18 02:52:33;;;;;;;;;6.50;6.25;;;;;21.59;53.89;101794.53;5082610;27;45289;-54
2021/07/18 02:54:58;;;;;;;;;9.00;7.50;;;;;21.57;53.27;101793.75;5064449;28;45516;-54
2021/07/18 02:57:24;;;;;;;;;10.75;8.00;;;;;21.55;53.36;101794.72;5082661;27;45220;-55
2021/07/18 02:59:50;;;;;;;;;8.00;7.25;;;;;21.53;54.10;101796.59;5102730;27;45583;-55
2021/07/18 03:02:16;;;;;;;;;9.00;8.00;;;;;21.51;53.74;101794.00;5088825;27;45395;-55
2021/07/18 03:04:41;;;;;;;;;6.75;6.75;;;;;21.48;53.58;101787.91;5082349;28;45548;-55
2021/07/18 03:07:06;;;;;;;;;7.50;7.50;;;;;21.46;53.92;101793.31;5082181;27;45290;-55
2021/07/18 03:09:32;;;;;;;;;7.00;7.00;;;;;21.45;53.58;101788.91;5082445;27;45423;-55
2021/07/18 03:11:57;;;;;;;;;7.25;6.75;;;;;21.43;53.42;101799.69;5082157;27;45398;-53
2021/07/18 03:14:22;;;;;;;;;10.50;9.75;;;;;21.41;53.87;101790.00;5082100;27;45290;-55
2021/07/18 03:16:48;;;;;;;;;10.50;9.00;;;;;21.39;54.22;101783.81;5080656;27;47212;-55
2021/07/18 03:19:14;;;;;;;;;7.25;7.25;;;;;21.37;53.85;101791.03;5082076;27;45354;-55
2021/07/18 03:21:40;;;;;;;;;8.50;7.75;;;;;21.36;53.82;101786.66;5082039;27;45388;-54
2021/07/18 03:24:05;;;;;;;;;6.25;5.50;;;;;21.34;53.79;101789.38;5063953;28;45518;-55
2021/07/18 03:26:31;;;;;;;;;9.25;7.00;;;;;21.32;53.78;101790.38;5082039;27;45505;-55
2021/07/18 03:28:57;;;;;;;;;8.75;8.75;;;;;21.30;53.80;101784.22;5085646;27;45232;-55
2021/07/18 03:31:22;;;;;;;;;7.00;7.00;;;;;21.29;54.12;101787.84;5102626;27;45574;-54
2021/07/18 03:33:47;;;;;;;;;9.50;8.50;;;;;21.26;54.19;101788.84;5083088;27;45581;-55
2021/07/18 03:36:13;;;;;;;;;9.00;8.00;;;;;21.23;53.90;101783.59;5081859;27;45320;-54
2021/07/18 03:38:38;;;;;;;;;8.75;8.00;;;;;21.20;54.00;101783.75;5095366;27;45174;-54
2021/07/18 03:41:04;;;;;;;;;9.25;8.50;;;;;21.18;54.13;101777.59;5081977;27;45369;-55
2021/07/18 03:43:30;;;;;;;;;9.50;8.00;;;;;21.15;54.02;101778.59;5081323;27;45499;-55
2021/07/18 03:45:55;;;;;;;;;9.25;7.25;;;;;21.11;54.05;101783.19;5081855;27;46693;-54
2021/07/18 03:48:20;;;;;;;;;11.00;9.50;;;;;21.09;54.15;101782.41;5095498;27;45254;-55
2021/07/18 03:50:47;;;;;;;;;10.00;9.00;;;;;21.08;54.66;101793.13;5081825;27;45529;-55
2021/07/18 03:53:12;;;;;;;;;7.75;7.75;;;;;21.07;54.14;101799.44;5081471;28;45493;-55
2021/07/18 03:55:38;;;;;;;;;4.25;4.00;;;;;21.03;54.46;101798.69;5093752;27;45413;-55
2021/07/18 03:58:03;;;;;;;;;8.00;8.00;;;;;21.02;54.03;101788.94;5096114;27;45370;-56
2021/07/18 04:00:29;;;;;;;;;8.25;7.00;;;;;21.00;54.19;101796.13;5081362;27;45292;-55
2021/07/18 04:02:54;;;;;;;;;10.50;8.25;;;;;20.97;54.38;101792.72;5081353;27;45394;-56
2021/07/18 04:05:19;;;;;;;;;6.75;6.75;;;;;20.95;54.42;101798.13;5081421;27;46057;-55
2021/07/18 04:07:45;;;;;;;;;7.75;7.75;;;;;20.93;54.54;101795.53;5081227;27;45323;-56
2021/07/18 04:10:10;;;;;;;;;10.50;8.25;;;;;20.90;54.39;101794.78;5080195;28;45528;-55
2021/07/18 04:12:36;;;;;;;;;8.75;8.00;;;;;20.89;54.86;101791.25;5081059;27;45488;-57
2021/07/18 04:15:02;;;;;;;;;8.00;6.75;;;;;20.88;54.34;101785.94;5081150;27;46004;-56
2021/07/18 04:17:28;;;;;;;;;9.00;8.00;;;;;20.86;54.29;101790.50;5081139;28;45285;-56
2021/07/18 04:19:53;;;;;;;;;9.00;8.00;;;;;20.85;54.50;101800.31;5080877;28;45237;-56
2021/07/18 04:22:18;;;;;;;;;8.25;7.75;;;;;20.75;54.35;101791.81;5065478;28;45384;-56
2021/07/18 04:24:44;;;;;;;;;7.00;7.00;;;;;20.81;54.32;101803.19;5094112;27;46147;-56
2021/07/18 04:27:09;;;;;;;;;7.50;6.75;;;;;20.80;54.92;101801.44;5081573;27;45201;-56
2021/07/18 04:29:35;;;;;;;;;10.25;7.50;;;;;20.75;54.46;101801.63;5090299;27;45304;-56
2021/07/18 04:32:00;;;;;;;;;9.00;7.25;;;;;20.75;55.08;101802.50;5097536;27;45272;-57
2021/07/18 04:34:25;;;;;;;;;11.00;7.00;;;;;20.73;55.11;101807.03;5062856;28;46338;-57
2021/07/18 04:36:51;;;;;;;;;11.75;8.75;;;;;20.73;55.03;101807.03;5084690;27;45208;-57
2021/07/18 04:39:16;;;;;;;;;9.50;8.25;;;;;20.72;54.80;101810.63;5090848;27;45482;-57
2021/07/18 04:41:42;;;;;;;;;11.25;7.75;;;;;20.70;55.16;101807.09;5080648;28;45464;-57
2021/07/18 04:44:07;;;;;;;;;7.00;7.00;;;;;20.70;55.20;101803.56;5080623;27;46077;-57
2021/07/18 04:46:33;;;;;;;;;8.25;7.25;;;;;20.68;54.83;101814.31;5085298;27;45304;-56
2021/07/18 04:48:59;;;;;;;;;7.75;7.75;;;;;20.58;54.91;101792.44;5090625;27;45272;-56
2021/07/18 04:51:24;;;;;;;;;9.75;9.00;;;;;20.64;54.90;101802.03;5062482;28;45465;-55
2021/07/18 04:53:50;;;;;;;;;7.75;7.75;;;;;20.63;55.23;101810.97;5080786;28;46168;-55
2021/07/18 04:56:16;;;;;;;;;12.50;9.25;;;;;20.59;54.70;101809.31;5080549;28;45320;-55
2021/07/18 04:58:42;;;;;;;;;9.75;9.75;;;;;20.60;55.32;101819.97;5080433;28;45296;-54
2021/07/18 05:01:08;;;;;;;;;10.75;8.25;;;;;20.60;54.96;101819.06;5080267;28;45458;-55
2021/07/18 05:03:34;;;;;;;;;10.25;9.50;;;;;20.59;54.89;101820.00;5069517;28;47439;-55
2021/07/18 05:06:05;;;;;;;;;9.25;7.75;;;;;20.55;55.23;101821.06;5094120;27;45290;-55
2021/07/18 05:08:30;;;;;;;;;9.00;8.00;;;;;20.58;55.21;101829.81;5079228;27;45268;-55
2021/07/18 05:10:56;;;;;;;;;9.75;8.75;;;;;20.57;55.48;101832.56;5080214;27;45379;-56
2021/07/18 05:13:21;;;;;;;;;6.00;6.00;;;;;20.57;55.32;101832.56;5080199;27;45287;-55
2021/07/18 05:15:46;;;;;;;;;6.25;5.25;;;;;20.56;55.06;101828.16;5080265;27;45237;-55
2021/07/18 05:18:13;;;;;;;;;7.50;7.50;;;;;20.55;54.95;101821.94;5080626;28;45207;-55
2021/07/18 05:20:41;;;;;;;;;6.50;5.50;;;;;20.54;55.08;101820.22;5079972;28;45526;-56
2021/07/18 05:23:07;;;;;;;;;7.00;7.00;;;;;20.54;55.22;101819.31;5080155;28;46372;-56
2021/07/18 05:25:32;;;;;;;;;6.00;6.00;;;;;20.52;55.29;101823.88;5079999;27;45325;-55
2021/07/18 05:27:58;;;;;;;;;4.75;4.75;;;;;20.54;55.35;101824.66;5080108;28;45340;-55
2021/07/18 05:30:23;;;;;;;;;9.00;8.25;;;;;20.53;55.68;101823.81;5095923;27;45497;-56
2021/07/18 05:32:49;;;;;;;;;11.25;8.00;;;;;20.51;55.30;101822.13;5089735;27;45253;-57
2021/07/18 05:35:14;;;;;;;;;8.00;6.00;;;;;20.49;55.54;101830.19;5080096;28;45417;-55
2021/07/18 05:37:40;;;;;;;;;6.00;6.00;;;;;20.51;55.76;101832.81;5090817;27;45453;-56
2021/07/18 05:40:08;;;;;;;;;7.25;6.00;;;;;20.51;55.90;101830.13;5082694;27;46424;-56
2021/07/18 05:42:34;;;;;;;;;7.75;6.00;;;;;20.51;55.79;101831.00;5078579;28;48640;-57
2021/07/18 05:44:59;;;;;;;;;8.50;6.25;;;;;20.51;55.50;101827.47;5079765;27;45276;-57
2021/07/18 05:47:25;;;;;;;;;7.25;7.25;;;;;20.52;55.83;101830.06;5091668;27;45308;-55
2021/07/18 05:49:52;;;;;;;;;6.00;6.00;;;;;20.52;55.36;101834.53;5082335;27;45509;-56
2021/07/18 05:52:17;;;;;;;;;7.00;7.00;;;;;20.52;55.90;101826.53;5079811;28;46302;-57
2021/07/18 05:54:43;;;;;;;;;8.75;7.75;;;;;20.53;55.91;101831.81;5079743;27;45378;-57
2021/07/18 05:57:08;;;;;;;;;8.00;6.75;;;;;20.53;56.20;101831.81;5079962;28;45402;-57
2021/07/18 05:59:33;;;;;;;;;7.00;7.00;;;;;20.54;55.90;101832.66;5079478;27;45405;-56
2021/07/18 06:01:59;;;;;;;;;9.50;8.25;;;;;20.56;55.96;101828.16;5061309;28;46044;-57
2021/07/18 06:04:25;;;;;;;;;5.75;5.75;;;;;20.56;55.48;101823.66;5079658;27;45377;-57
2021/07/18 06:06:51;;;;;;;;;6.75;6.75;;;;;20.57;56.10;101824.56;5080076;27;45368;-56
2021/07/18 06:09:16;;;;;;;;;5.50;5.50;;;;;20.58;55.90;101826.31;5079748;28;45220;-56
2021/07/18 06:11:42;;;;;;;;;5.75;5.75;;;;;20.59;55.59;101830.69;5079289;28;46107;-57
2021/07/18 06:14:07;;;;;;;;;6.00;5.50;;;;;20.61;55.63;101831.50;5079264;28;45233;-56
2021/07/18 06:16:32;;;;;;;;;5.50;5.50;;;;;20.61;55.91;101831.50;5082710;27;45389;-57
2021/07/18 06:18:58;;;;;;;;;5.25;5.25;;;;;20.62;55.73;101825.25;5082991;27;45489;-56
2021/07/18 06:21:23;;;;;;;;;7.00;7.00;;;;;20.63;56.12;101829.66;5082713;27;45217;-57
2021/07/18 06:23:49;;;;;;;;;6.50;6.00;;;;;20.65;55.77;101829.59;5082903;27;45221;-56
2021/07/18 06:26:15;;;;;;;;;7.75;6.00;;;;;20.66;56.07;101834.88;5083202;27;45422;-57
2021/07/18 06:28:40;;;;;;;;;9.50;8.00;;;;;20.69;56.05;101839.22;5083913;27;45253;-56
2021/07/18 06:31:05;;;;;;;;;6.50;6.50;;;;;20.69;55.66;101834.75;5102995;27;45983;-57
2021/07/18 06:33:31;;;;;;;;;6.00;5.00;;;;;20.71;55.74;101846.25;5086355;27;45181;-56
2021/07/18 06:35:56;;;;;;;;;6.25;6.25;;;;;20.74;55.92;101839.94;5081581;28;45388;-56
2021/07/18 06:38:22;;;;;;;;;4.50;4.50;;;;;20.76;55.77;101846.09;5096369;27;45399;-57
2021/07/18 06:40:47;;;;;;;;;11.25;10.00;;;;;20.77;56.31;101848.69;5082518;27;45379;-57
2021/07/18 06:43:13;;;;;;;;;9.25;8.00;;;;;20.81;55.86;101851.25;5082285;28;45295;-56
2021/07/18 06:45:38;;;;;;;;;7.50;6.25;;;;;20.82;56.16;101845.84;5082984;27;45252;-57
2021/07/18 06:48:04;;;;;;;;;6.00;5.00;;;;;20.87;56.38;101859.03;5080155;27;45551;-56
2021/07/18 06:50:29;;;;;;;;;7.00;7.00;;;;;20.89;56.45;101854.47;5081140;28;48310;-55
2021/07/18 06:52:54;;;;;;;;;5.25;5.25;;;;;20.91;55.78;101848.13;5082527;27;45325;-56
2021/07/18 06:55:20;;;;;;;;;4.50;4.25;;;;;20.95;56.42;101851.56;5082862;27;45249;-56
2021/07/18 06:57:49;;;;;;;;;7.75;5.75;;;;;20.96;56.14;101845.28;5099317;27;45444;-56
2021/07/18 07:00:16;;;;;;;;;6.50;5.25;;;;;21.02;55.95;101846.81;5091787;27;45187;-57
2021/07/18 07:02:42;;;;;;;;;7.50;5.25;;;;;21.04;56.22;101839.63;5082294;28;45391;-57
2021/07/18 07:05:08;;;;;;;;;7.75;5.25;;;;;21.08;56.04;101839.44;5082471;27;45498;-56
2021/07/18 07:07:34;;;;;;;;;6.25;4.25;;;;;21.14;55.87;101842.81;5082201;27;45361;-56
2021/07/18 07:09:59;;;;;;;;;6.00;6.00;;;;;21.15;56.13;101837.38;5082070;27;45565;-55
2021/07/18 07:12:24;;;;;;;;;7.50;7.00;;;;;21.20;56.29;101843.41;5082207;27;45315;-56
2021/07/18 07:14:50;;;;;;;;;5.00;5.00;;;;;21.23;56.31;101851.31;5082172;28;45338;-55
2021/07/18 07:17:15;;;;;;;;;6.00;6.00;;;;;21.27;56.22;101844.91;5082140;27;45309;-55
2021/07/18 07:19:41;;;;;;;;;8.00;6.25;;;;;21.31;56.34;101851.00;5063712;28;45338;-56
2021/07/18 07:22:07;;;;;;;;;7.25;5.00;;;;;21.34;56.09;101850.00;5081992;27;45251;-55
2021/07/18 07:24:32;;;;;;;;;8.25;6.25;;;;;21.39;55.87;101848.84;5082328;27;45393;-57
2021/07/18 07:26:58;;;;;;;;;8.00;5.25;;;;;21.43;56.60;101839.78;5081476;27;45158;-52
2021/07/18 07:29:23;;;;;;;;;5.00;4.00;;;;;21.46;56.46;101846.81;5089214;27;45217;-47
2021/07/18 07:31:48;;;;;;;;;7.00;6.00;;;;;21.50;56.47;101843.06;5099686;27;45430;-47
2021/07/18 07:34:14;;;;;;;;;4.25;4.25;;;;;21.55;56.29;101842.88;5082016;27;45283;-51
2021/07/18 07:36:39;;;;;;;;;5.50;4.50;;;;;21.58;56.56;101840.06;5083649;27;45211;-47
2021/07/18 07:39:04;;;;;;;;;5.50;4.75;;;;;21.64;55.94;101847.84;5093564;27;45156;-49
2021/07/18 07:41:30;;;;;;;;;6.25;6.25;;;;;21.69;56.05;101832.44;5081603;28;45574;-48
2021/07/18 07:43:57;;;;;;;;;5.00;5.00;;;;;21.75;56.52;101840.22;5081569;28;45459;-46
2021/07/18 07:46:24;;;;;;;;;4.00;4.00;;;;;21.80;56.11;101845.38;5084462;27;45319;-47
2021/07/18 07:48:50;;;;;;;;;6.75;5.00;;;;;21.86;55.86;101841.53;5092617;27;46338;-47
2021/07/18 07:51:16;;;;;;;;;4.00;4.00;;;;;21.94;56.28;101851.88;5081392;27;45306;-47
2021/07/18 07:53:41;;;;;;;;;4.00;3.75;;;;;21.98;56.23;101843.66;5081636;28;45341;-46
2021/07/18 07:56:06;;;;;;;;;5.00;5.00;;;;;22.03;56.20;101844.31;5081493;27;45213;-49
2021/07/18 07:58:33;;;;;;;;;3.75;3.75;;;;;22.09;56.49;101843.19;5081189;27;46271;-46
2021/07/18 08:00:59;;;;;;;;;4.00;4.00;;;;;22.14;55.98;101843.84;5081315;28;45228;-46
2021/07/18 08:03:25;;;;;;;;;6.50;4.75;;;;;22.22;56.47;101844.34;5081406;27;45316;-51
2021/07/18 08:05:51;;;;;;;;;6.75;4.00;;;;;22.29;55.90;101846.75;5081087;27;45520;-51
2021/07/18 08:08:16;;;;;;;;;5.50;5.25;;;;;22.34;56.04;101847.41;5081271;28;46065;-50
2021/07/18 08:10:42;;;;;;;;;4.75;4.00;;;;;22.41;56.11;101843.53;5081148;27;45370;-47
2021/07/18 08:13:07;;;;;;;;;4.00;4.00;;;;;22.48;56.06;101849.50;5081207;28;45485;-47
2021/07/18 08:15:34;;;;;;;;;5.50;4.75;;;;;22.51;56.01;101844.84;5081017;28;45521;-50
2021/07/18 08:18:00;;;;;;;;;3.50;3.00;;;;;22.58;55.92;101845.44;5081176;27;47167;-54
2021/07/18 08:20:27;;;;;;;;;6.25;4.00;;;;;22.66;57.25;101837.88;5080595;27;45445;-57
2021/07/18 08:22:55;;;;;;;;;3.75;3.75;;;;;22.80;57.74;101839.91;5080924;27;45395;-56
2021/07/18 08:25:23;;;;;;;;;4.50;4.00;;;;;22.91;57.85;101830.50;5080760;28;45503;-57
2021/07/18 08:27:48;;;;;;;;;4.25;3.25;;;;;23.01;57.50;101832.63;5078851;27;47253;-58
2021/07/18 08:30:15;;;;;;;;;5.25;3.50;;;;;23.12;57.50;101824.06;5094310;27;45371;-56
2021/07/18 08:32:41;;;;;;;;;5.00;5.00;;;;;23.22;57.30;101824.50;5092072;27;45278;-50
2021/07/18 08:35:07;;;;;;;;;6.25;5.00;;;;;23.29;57.57;101820.53;5080668;28;45581;-54
2021/07/18 08:37:33;;;;;;;;;4.50;4.00;;;;;23.41;57.00;101818.19;5089398;27;46284;-58
2021/07/18 08:40:00;;;;;;;;;5.50;4.00;;;;;23.53;56.53;101821.13;5081861;27;45341;-58
2021/07/18 08:42:25;;;;;;;;;4.50;4.00;;;;;23.64;56.48;101820.53;5091385;27;45359;-61
2021/07/18 08:44:51;;;;;;;;;6.50;5.00;;;;;23.75;56.13;101806.56;5080207;27;45535;-61
2021/07/18 08:47:18;;;;;;;;;4.75;3.50;;;;;23.85;55.55;101809.63;5081299;27;47288;-56
2021/07/18 08:49:43;;;;;;;;;2.00;2.00;;;;;23.97;55.61;101800.91;5083802;27;45358;-69
2021/07/18 08:52:10;;;;;;;;;3.00;3.00;;;;;24.03;55.39;101810.47;5080677;27;45318;-59
2021/07/18 08:54:36;;;;;;;;;3.75;3.50;;;;;24.09;55.37;101810.16;5097510;27;45387;-58
2021/07/18 08:57:02;;;;;;;;;2.75;2.75;;;;;24.14;55.25;101802.69;5090297;27;45367;-59
2021/07/18 08:59:29;;;;;;;;;3.00;3.00;;;;;24.20;54.92;101809.56;5080262;27;45307;-54
2021/07/18 09:01:54;;;;;;;;;4.50;4.00;;;;;24.18;55.03;101804.25;5089879;27;45470;-56
2021/07/18 09:04:20;;;;;;;;;4.00;3.25;;;;;24.06;55.18;101809.44;5096800;27;45232;-55
2021/07/18 09:06:50;;;;;;;;;2.50;2.50;;;;;24.04;55.34;101812.22;5090011;27;46961;-52
2021/07/18 09:09:21;;;;;;;;;2.50;2.50;;;;;24.05;55.44;101811.28;5094926;27;45474;-48
2021/07/18 09:12:04;;;;;;;;;3.25;2.75;;;;;24.09;55.55;101804.78;5077832;28;45494;-50
2021/07/18 09:14:49;;;;;;;;;4.50;3.00;;;;;24.16;55.19;101805.28;5087849;27;45538;-48
2021/07/18 09:17:20;;;;;;;;;4.50;3.75;;;;;24.20;54.76;101806.00;5082408;27;46215;-50
2021/07/18 09:19:49;;;;;;;;;3.00;3.00;;;;;24.27;54.89;101807.41;5091293;27;45333;-46
2021/07/18 09:22:21;;;;;;;;;4.75;4.75;;;;;24.32;55.07;101800.81;5100437;27;45198;-48
2021/07/18 09:24:48;;;;;;;;;3.50;3.50;;;;;24.38;55.18;101796.03;5100662;27;45328;-49
2021/07/18 09:27:17;;;;;;;;;2.00;2.00;;;;;24.45;54.37;101803.69;5081952;27;47019;-47
2021/07/18 09:29:46;;;;;;;;;4.00;3.25;;;;;24.51;54.66;101797.09;5096617;27;45381;-50
2021/07/18 09:32:19;;;;;;;;;4.75;3.50;;;;;24.56;54.77;101795.00;5078601;28;45481;-47
2021/07/18 09:34:54;;;;;;;;;2.50;2.50;;;;;24.64;54.35;101800.84;5093775;27;45363;-50
2021/07/18 09:37:26;;;;;;;;;3.00;3.00;;;;;24.71;54.71;101800.50;5086607;27;45309;-49
2021/07/18 09:39:56;;;;;;;;;4.75;4.00;;;;;24.78;54.31;101796.50;5078396;27;45358;-45
2021/07/18 09:42:51;;;;;;;;;2.00;2.00;;;;;24.86;54.24;101801.44;5079867;28;45304;-46
2021/07/18 09:45:27;;;;;;;;;2.00;2.00;;;;;24.92;54.48;101788.50;5080005;28;45233;-47
2021/07/18 09:48:07;;;;;;;;;1.75;1.75;;;;;25.00;54.01;101788.06;5080303;27;47232;-48
2021/07/18 09:50:38;;;;;;;;;1.25;1.25;;;;;25.07;53.73;101785.84;5082717;27;45331;-50
2021/07/18 09:53:20;;;;;;;;;1.25;1.25;;;;;25.14;53.98;101787.22;5083613;27;45341;-49
2021/07/18 09:56:09;;;;;;;;;2.50;2.50;;;;;25.23;53.76;101797.47;5083234;27;45323;-48
2021/07/18 09:58:39;;;;;;;;;4.25;3.50;;;;;25.30;53.08;101790.72;5083143;27;45461;-49
2021/07/18 10:01:07;;;;;;;;;3.50;3.50;;;;;25.39;53.57;101786.66;5065135;28;45467;-48
2021/07/18 10:03:33;;;;;;;;;3.00;3.00;;;;;25.44;53.23;101791.75;5083384;27;45237;-49
2021/07/18 10:06:15;;;;;;;;;2.25;2.25;;;;;25.54;52.56;101787.56;5083033;27;45217;-49
2021/07/18 10:08:46;;;;;;;;;4.25;2.75;;;;;25.64;52.53;101790.53;5083123;27;46165;-48
2021/07/18 10:11:14;;;;;;;;;4.50;4.00;;;;;25.69;52.15;101792.97;5083125;27;45365;-46
2021/07/18 10:13:41;;;;;;;;;3.00;2.25;;;;;25.77;52.58;101796.91;5082791;27;45337;-51
2021/07/18 10:16:07;;;;;;;;;2.00;2.00;;;;;25.88;51.93;101798.06;5082786;27;45564;-48
2021/07/18 10:18:38;;;;;;;;;2.00;2.00;;;;;25.96;52.14;101787.66;5081435;27;46780;-49
2021/07/18 10:21:05;;;;;;;;;2.25;2.25;;;;;26.05;52.45;101794.28;5077814;28;45886;-46
2021/07/18 10:23:33;;;;;;;;;4.00;4.00;;;;;26.13;51.65;101786.63;5062747;28;45314;-49
2021/07/18 10:26:00;;;;;;;;;4.00;4.00;;;;;26.21;51.47;101787.03;5062491;28;45592;-48
2021/07/18 10:28:26;;;;;;;;;2.00;2.00;;;;;26.32;51.54;101782.78;5062073;28;45232;-48
2021/07/18 10:30:57;;;;;;;;;2.00;2.00;;;;;26.40;51.47;101785.81;5082457;28;45392;-50
2021/07/18 10:33:25;;;;;;;;;11.25;10.25;;;;;26.51;51.29;101780.59;5067068;27;45306;-51
2021/07/18 10:35:53;;;;;;;;;3.00;2.75;;;;;26.63;51.74;101788.84;5062451;28;45410;-50
2021/07/18 10:38:25;;;;;;;;;6.00;5.00;;;;;26.74;51.75;101780.94;5074511;28;48262;-47
2021/07/18 10:40:53;;;;;;;;;5.00;3.25;;;;;26.85;50.97;101767.59;5077941;28;45547;-50
2021/07/18 10:43:37;;;;;;;;;2.00;2.00;;;;;26.99;51.02;101758.56;5061925;28;45348;-47
2021/07/18 10:46:05;;;;;;;;;3.25;3.25;;;;;27.15;50.98;101771.03;5063021;28;45279;-50
2021/07/18 10:48:49;;;;;;;;;3.00;3.00;;;;;27.35;51.06;101764.25;5069391;28;46141;-49
2021/07/18 10:51:17;;;;;;;;;3.00;3.00;;;;;27.57;51.05;101760.94;5079542;28;45382;-46
2021/07/18 10:53:44;;;;;;;;;3.50;3.50;;;;;27.86;50.81;101763.41;5061079;28;45266;-49
2021/07/18 10:56:09;;;;;;;;;5.00;3.00;;;;;28.20;51.50;101760.97;5062101;28;45463;-45
2021/07/18 10:58:37;;;;;;;;;3.25;3.25;;;;;28.64;51.17;101758.66;5061820;28;46051;-50
2021/07/18 11:01:04;;;;;;;;;3.75;3.75;;;;;29.11;51.12;101759.63;5061214;28;45466;-50
2021/07/18 11:03:34;;;;;;;;;2.50;2.50;;;;;29.63;51.11;101753.84;5062095;28;45461;-49
2021/07/18 11:06:23;;;;;;;;;4.25;3.25;;;;;30.26;50.66;101759.59;5061719;28;45330;-48
2021/07/18 11:09:12;;;;;;;;;3.25;1.75;;;;;30.92;50.66;101747.81;5077412;28;46798;-47
2021/07/18 11:11:48;;;;;;;;;5.00;3.25;;;;;31.56;50.42;101742.38;5061824;28;45227;-50
2021/07/18 11:14:37;;;;;;;;;3.00;3.00;;;;;32.29;49.68;101749.53;5061681;28;45480;-52
2021/07/18 11:17:04;;;;;;;;;3.00;3.00;;;;;32.93;50.12;101750.03;5061746;28;45431;-55
2021/07/18 11:19:35;;;;;;;;;4.25;4.25;;;;;33.58;49.67;101749.34;5062927;28;45907;-51
2021/07/18 11:22:02;;;;;;;;;3.00;3.00;;;;;34.18;49.13;101751.66;5081700;27;45268;-50
2021/07/18 11:24:53;;;;;;;;;4.50;4.50;;;;;34.83;48.82;101748.75;5082154;27;45440;-50